Time;durP1;ratioP1;P1;durP2;ratioP2;P2;SDS_P1;SDS_P2;PMS_P1;PMS_P2;Temp;Humidity;BMP_temperature;BMP_pressure;BME280_temperature;BME280_humidity;BME280_pressure;Samples;Min_cycle;Max_cycle;Signal;HPM_P1;HPM_P2
2024/01/16 00:00:16;;;;;;;3.85;0.82;;;1.80;99.90;;;;;;4863862;29;20049;-76
2024/01/16 00:02:41;;;;;;;10.02;1.17;;;1.80;99.90;;;;;;4863172;29;20059;-75
2024/01/16 00:05:10;;;;;;;8.70;1.27;;;1.90;99.90;;;;;;4863421;29;20048;-76
2024/01/16 00:07:39;;;;;;;11.18;1.60;;;1.90;99.90;;;;;;4863324;29;20057;-76
2024/01/16 00:10:09;;;;;;;8.13;0.98;;;1.80;99.90;;;;;;4863329;29;20479;-76
2024/01/16 00:12:35;;;;;;;5.78;0.73;;;1.90;99.90;;;;;;4863286;29;20051;-76
2024/01/16 00:15:00;;;;;;;8.82;1.65;;;1.90;99.90;;;;;;4863405;29;20049;-76
2024/01/16 00:17:26;;;;;;;12.45;1.20;;;1.90;99.90;;;;;;4880084;29;20057;-76
2024/01/16 00:19:51;;;;;;;17.00;1.40;;;2.00;99.90;;;;;;4863221;29;20401;-76
2024/01/16 00:22:17;;;;;;;3.85;0.70;;;2.00;99.90;;;;;;4862892;29;20060;-76
2024/01/16 00:24:43;;;;;;;6.95;1.30;;;2.10;99.90;;;;;;4863284;29;20091;-76
2024/01/16 00:27:08;;;;;;;3.25;0.85;;;2.10;99.90;;;;;;4863593;29;20057;-76
2024/01/16 00:29:34;;;;;;;5.57;1.30;;;2.20;99.90;;;;;;4863338;29;20052;-76
2024/01/16 00:31:59;;;;;;;4.88;0.43;;;2.30;99.90;;;;;;4863203;29;20060;-75
2024/01/16 00:34:25;;;;;;;8.10;0.70;;;2.20;99.90;;;;;;4879666;29;20120;-75
2024/01/16 00:36:51;;;;;;;6.32;0.40;;;2.10;99.90;;;;;;4863117;29;20147;-75
2024/01/16 00:39:16;;;;;;;2.38;0.25;;;1.90;99.90;;;;;;4863086;29;20512;-75
2024/01/16 00:41:42;;;;;;;2.40;0.43;;;1.80;99.90;;;;;;4863396;29;20056;-75
2024/01/16 00:44:08;;;;;;;1.42;0.32;;;1.70;99.90;;;;;;4863421;29;20048;-75
2024/01/16 00:46:34;;;;;;;5.13;1.13;;;1.70;99.90;;;;;;4863384;29;20084;-75
2024/01/16 00:48:59;;;;;;;5.90;1.08;;;1.80;99.90;;;;;;4879644;29;20477;-75
2024/01/16 00:51:25;;;;;;;7.38;0.95;;;1.80;99.90;;;;;;4879565;29;20090;-75
2024/01/16 00:53:51;;;;;;;3.55;0.50;;;1.90;99.90;;;;;;4863311;29;20052;-75
2024/01/16 00:56:16;;;;;;;4.90;0.75;;;2.00;99.90;;;;;;4863032;29;20473;-75
2024/01/16 00:58:42;;;;;;;7.85;0.80;;;2.10;99.90;;;;;;4863080;29;20045;-75
2024/01/16 01:01:07;;;;;;;9.20;0.90;;;2.10;99.90;;;;;;4863073;29;20108;-75
2024/01/16 01:03:33;;;;;;;6.38;1.05;;;2.10;99.90;;;;;;4863097;29;20516;-75
2024/01/16 01:06:01;;;;;;;11.63;0.90;;;2.10;99.90;;;;;;4862691;29;20074;-76
2024/01/16 01:08:27;;;;;;;7.38;1.15;;;2.10;99.90;;;;;;4879542;29;20057;-75
2024/01/16 01:10:52;;;;;;;8.75;0.88;;;2.00;99.90;;;;;;4863024;29;20056;-75
2024/01/16 01:13:18;;;;;;;8.07;0.93;;;1.90;99.90;;;;;;4863090;29;20053;-75
2024/01/16 01:15:44;;;;;;;9.38;1.17;;;1.80;99.90;;;;;;4862763;29;20049;-75
2024/01/16 01:18:13;;;;;;;5.82;1.30;;;1.60;99.90;;;;;;4862798;29;20053;-75
2024/01/16 01:20:38;;;;;;;6.43;1.25;;;1.60;99.90;;;;;;4879799;29;20118;-75
2024/01/16 01:23:04;;;;;;;14.35;1.92;;;1.50;99.90;;;;;;4879598;29;20400;-75
2024/01/16 01:25:30;;;;;;;9.38;1.25;;;1.40;99.90;;;;;;4863015;29;20493;-75
2024/01/16 01:27:58;;;;;;;11.25;1.17;;;1.40;99.90;;;;;;4879425;29;20491;-75
2024/01/16 01:30:24;;;;;;;8.63;1.02;;;1.40;99.90;;;;;;4862660;29;20512;-75
2024/01/16 01:32:49;;;;;;;4.00;0.90;;;1.30;99.90;;;;;;4862997;29;20049;-75
2024/01/16 01:35:19;;;;;;;12.57;1.20;;;1.20;99.90;;;;;;4866040;29;20051;-75
2024/01/16 01:37:45;;;;;;;8.52;0.93;;;1.20;99.90;;;;;;4866212;29;20124;-75
2024/01/16 01:40:12;;;;;;;5.55;0.70;;;1.10;99.90;;;;;;4866263;29;20120;-75
2024/01/16 01:42:40;;;;;;;8.05;1.08;;;1.00;99.90;;;;;;4865978;29;20060;-75
2024/01/16 01:45:06;;;;;;;5.18;0.68;;;1.00;99.90;;;;;;4882642;29;20386;-75
2024/01/16 01:47:32;;;;;;;4.57;0.93;;;0.90;99.90;;;;;;4882427;29;20049;-75
2024/01/16 01:49:59;;;;;;;12.70;1.25;;;0.90;99.90;;;;;;4865928;29;20045;-75
2024/01/16 01:52:24;;;;;;;6.15;0.98;;;1.00;99.90;;;;;;4865638;29;20064;-75
2024/01/16 01:54:51;;;;;;;5.45;1.10;;;1.00;99.90;;;;;;4882262;29;20053;-75
2024/01/16 01:57:18;;;;;;;18.63;2.22;;;1.00;99.90;;;;;;4882467;29;20048;-75
2024/01/16 01:59:43;;;;;;;2.80;0.70;;;1.00;99.90;;;;;;4865759;29;20071;-76
2024/01/16 02:02:11;;;;;;;4.75;0.85;;;1.00;99.90;;;;;;4865433;29;20397;-75
2024/01/16 02:04:38;;;;;;;7.15;0.95;;;1.00;99.90;;;;;;4882387;29;20049;-75
2024/01/16 02:07:04;;;;;;;9.50;1.27;;;1.10;99.90;;;;;;4865193;29;20568;-75
2024/01/16 02:09:30;;;;;;;13.43;1.20;;;1.10;99.90;;;;;;4865458;29;20075;-76
2024/01/16 02:11:56;;;;;;;10.45;1.08;;;1.10;99.90;;;;;;4865343;29;20077;-76
2024/01/16 02:14:24;;;;;;;5.93;0.90;;;1.30;99.90;;;;;;4865318;29;20088;-76
2024/01/16 02:16:50;;;;;;;8.90;0.90;;;1.60;99.90;;;;;;4865310;29;20057;-76
2024/01/16 02:19:16;;;;;;;6.40;1.60;;;1.80;99.90;;;;;;4865491;29;20064;-76
2024/01/16 02:21:50;;;;;;;9.95;1.27;;;2.00;99.90;;;;;;4865558;29;20057;-76
2024/01/16 02:24:17;;;;;;;7.20;1.10;;;2.10;99.90;;;;;;4865333;29;20105;-76
2024/01/16 02:26:43;;;;;;;5.35;0.60;;;2.20;99.90;;;;;;4865041;29;20084;-75
2024/01/16 02:29:09;;;;;;;2.47;0.82;;;2.30;99.90;;;;;;4865124;29;20106;-76
2024/01/16 02:31:35;;;;;;;8.40;1.15;;;2.40;99.90;;;;;;4864919;29;20049;-76
2024/01/16 02:34:01;;;;;;;9.35;1.70;;;2.40;99.90;;;;;;4865079;29;20055;-76
2024/01/16 02:36:31;;;;;;;6.35;0.63;;;2.50;99.90;;;;;;4865050;29;20124;-76
2024/01/16 02:38:57;;;;;;;17.52;1.40;;;2.50;99.90;;;;;;4865248;29;20059;-76
2024/01/16 02:41:22;;;;;;;6.70;1.17;;;2.50;99.90;;;;;;4864802;29;20128;-76
2024/01/16 02:43:48;;;;;;;3.60;0.95;;;2.50;99.90;;;;;;4881614;29;20083;-76
2024/01/16 02:46:14;;;;;;;9.77;1.20;;;2.50;99.90;;;;;;4864197;29;20052;-76
2024/01/16 02:48:42;;;;;;;8.50;1.05;;;2.50;99.90;;;;;;4864870;29;20477;-76
2024/01/16 02:51:08;;;;;;;7.30;1.23;;;2.50;99.90;;;;;;4881431;29;20052;-76
2024/01/16 02:53:34;;;;;;;9.07;1.23;;;2.50;99.90;;;;;;4864686;29;20064;-76
2024/01/16 02:55:59;;;;;;;6.60;0.98;;;2.50;99.90;;;;;;4881369;29;20049;-76
2024/01/16 02:58:29;;;;;;;9.05;1.02;;;2.50;99.90;;;;;;4864665;29;20056;-76
2024/01/16 03:00:55;;;;;;;19.45;1.33;;;2.50;99.90;;;;;;4864760;29;20102;-75
2024/01/16 03:03:27;;;;;;;16.13;1.73;;;2.40;99.90;;;;;;4881303;29;20052;-76
2024/01/16 03:05:55;;;;;;;8.77;1.10;;;2.40;99.90;;;;;;4864538;29;20057;-76
2024/01/16 03:08:22;;;;;;;10.70;1.35;;;2.30;99.90;;;;;;4864468;29;20428;-75
2024/01/16 03:10:48;;;;;;;12.27;2.20;;;2.20;99.90;;;;;;4880870;29;20056;-75
2024/01/16 03:13:14;;;;;;;12.57;2.13;;;2.20;99.90;;;;;;4864324;29;20057;-76
2024/01/16 03:15:40;;;;;;;8.23;1.20;;;2.10;99.90;;;;;;4881070;29;20056;-76
2024/01/16 03:18:06;;;;;;;9.20;1.88;;;2.10;99.90;;;;;;4864265;29;20416;-76
2024/01/16 03:20:32;;;;;;;8.48;1.52;;;2.10;99.90;;;;;;4864197;29;20049;-76
2024/01/16 03:22:58;;;;;;;12.18;1.27;;;2.10;99.90;;;;;;4864017;29;20052;-76
2024/01/16 03:25:26;;;;;;;13.25;2.55;;;2.00;99.90;;;;;;4863971;29;20055;-75
2024/01/16 03:27:52;;;;;;;7.18;1.00;;;2.00;99.90;;;;;;4880746;29;20053;-76
2024/01/16 03:30:18;;;;;;;14.50;3.13;;;2.00;99.90;;;;;;4864241;29;20097;-76
2024/01/16 03:32:46;;;;;;;8.13;1.70;;;2.00;99.90;;;;;;4863935;29;20131;-75
2024/01/16 03:35:12;;;;;;;9.23;1.02;;;1.90;99.90;;;;;;4880064;29;20061;-75
2024/01/16 03:37:38;;;;;;;10.88;1.45;;;1.90;99.90;;;;;;4864266;29;20139;-75
2024/01/16 03:40:04;;;;;;;9.38;1.63;;;1.80;99.90;;;;;;4864277;29;20056;-75
2024/01/16 03:42:30;;;;;;;9.40;1.88;;;1.80;99.90;;;;;;4863806;29;20124;-75
2024/01/16 03:44:58;;;;;;;6.35;1.35;;;1.80;99.90;;;;;;4863828;29;20127;-75
2024/01/16 03:47:24;;;;;;;11.70;1.52;;;1.80;99.90;;;;;;4864074;29;20081;-75
2024/01/16 03:49:49;;;;;;;11.10;1.10;;;1.70;99.90;;;;;;4863761;29;20457;-75
2024/01/16 03:52:18;;;;;;;7.53;1.40;;;1.70;99.90;;;;;;4863602;29;20053;-75
2024/01/16 03:54:43;;;;;;;6.45;1.00;;;1.70;99.90;;;;;;4880429;29;20080;-75
2024/01/16 03:57:09;;;;;;;7.28;1.42;;;1.70;99.90;;;;;;4862933;29;20115;-76
2024/01/16 03:59:37;;;;;;;10.00;1.33;;;1.70;99.90;;;;;;4863595;29;20468;-76
2024/01/16 04:02:03;;;;;;;4.93;0.95;;;1.70;99.90;;;;;;4863864;29;20056;-75
2024/01/16 04:04:29;;;;;;;6.40;0.93;;;1.70;99.90;;;;;;4863518;29;20056;-75
2024/01/16 04:06:57;;;;;;;6.13;1.20;;;1.70;99.90;;;;;;4863304;29;20063;-76
2024/01/16 04:09:24;;;;;;;5.13;0.88;;;1.70;99.90;;;;;;4863493;29;20064;-75
2024/01/16 04:11:50;;;;;;;6.07;1.27;;;1.70;99.90;;;;;;4863514;29;20060;-76
2024/01/16 04:14:16;;;;;;;8.48;1.10;;;2.00;99.90;;;;;;4863471;29;20114;-76
2024/01/16 04:16:41;;;;;;;4.70;1.13;;;2.10;99.90;;;;;;4863460;29;20064;-75
2024/01/16 04:19:07;;;;;;;5.65;0.70;;;2.10;99.90;;;;;;4863405;29;20045;-75
2024/01/16 04:21:36;;;;;;;11.23;1.48;;;2.00;99.90;;;;;;4880087;29;20045;-75
2024/01/16 04:24:02;;;;;;;6.22;0.60;;;1.90;99.90;;;;;;4863273;29;20053;-75
2024/01/16 04:26:28;;;;;;;9.45;1.20;;;1.90;99.90;;;;;;4863428;29;20053;-75
2024/01/16 04:28:54;;;;;;;5.05;0.93;;;1.90;99.90;;;;;;4863513;29;20057;-75
2024/01/16 04:31:21;;;;;;;6.75;0.80;;;1.80;99.90;;;;;;4879917;29;20053;-75
2024/01/16 04:33:47;;;;;;;7.65;0.98;;;1.80;99.90;;;;;;4863069;29;20064;-76
2024/01/16 04:36:15;;;;;;;8.18;2.15;;;1.70;99.90;;;;;;4879864;29;20049;-76
2024/01/16 04:38:41;;;;;;;8.63;0.93;;;1.70;99.90;;;;;;4862961;29;20136;-75
2024/01/16 04:41:07;;;;;;;8.50;0.90;;;1.50;99.90;;;;;;4863382;29;20057;-75
2024/01/16 04:43:32;;;;;;;5.15;0.57;;;1.50;99.90;;;;;;4863181;29;20059;-75
2024/01/16 04:45:58;;;;;;;6.72;0.70;;;1.40;99.90;;;;;;4863315;29;20086;-75
2024/01/16 04:48:24;;;;;;;3.35;0.70;;;1.40;99.90;;;;;;4863259;29;20049;-76
2024/01/16 04:50:49;;;;;;;5.07;0.55;;;1.30;99.90;;;;;;4863169;29;20464;-75
2024/01/16 04:53:18;;;;;;;8.52;0.90;;;1.30;99.90;;;;;;4862954;29;20048;-76
2024/01/16 04:55:44;;;;;;;1.35;0.30;;;1.20;99.90;;;;;;4863038;29;20477;-75
2024/01/16 04:58:10;;;;;;;5.15;0.70;;;1.20;99.90;;;;;;4863008;29;20060;-76
2024/01/16 05:00:36;;;;;;;6.90;0.88;;;1.20;99.90;;;;;;4863213;29;20139;-75
2024/01/16 05:03:04;;;;;;;7.10;1.20;;;1.20;99.90;;;;;;4879661;29;20136;-75
2024/01/16 05:05:30;;;;;;;4.82;1.05;;;1.20;99.90;;;;;;4862846;29;20556;-76
2024/01/16 05:08:00;;;;;;;5.53;1.83;;;1.20;99.90;;;;;;4863379;29;20144;-75
2024/01/16 05:10:25;;;;;;;8.15;1.13;;;1.30;99.90;;;;;;4866534;29;20420;-76
2024/01/16 05:12:51;;;;;;;6.28;0.85;;;1.30;99.90;;;;;;4866508;29;20053;-75
2024/01/16 05:15:17;;;;;;;5.35;1.10;;;1.30;99.90;;;;;;4866782;29;20055;-75
2024/01/16 05:17:42;;;;;;;6.78;1.38;;;1.30;99.90;;;;;;4883156;29;20064;-75
2024/01/16 05:20:09;;;;;;;9.93;1.15;;;1.30;99.90;;;;;;4866568;29;20049;-76
2024/01/16 05:22:35;;;;;;;7.45;1.23;;;1.30;99.90;;;;;;4866516;29;20099;-75
2024/01/16 05:25:01;;;;;;;12.57;1.27;;;1.20;99.90;;;;;;4866236;29;20497;-75
2024/01/16 05:27:29;;;;;;;9.27;1.50;;;1.20;99.90;;;;;;4866186;29;20053;-75
2024/01/16 05:29:54;;;;;;;6.10;1.13;;;1.20;99.90;;;;;;4882878;29;20481;-75
2024/01/16 05:32:20;;;;;;;11.20;1.27;;;1.20;99.90;;;;;;4866019;29;20055;-76
2024/01/16 05:34:46;;;;;;;5.72;0.80;;;1.20;99.90;;;;;;4866013;29;20132;-75
2024/01/16 05:37:11;;;;;;;8.55;1.02;;;1.20;99.90;;;;;;4866410;29;20061;-76
2024/01/16 05:39:37;;;;;;;5.68;1.30;;;1.20;99.90;;;;;;4866003;29;20091;-75
2024/01/16 05:42:06;;;;;;;7.45;1.42;;;1.20;99.90;;;;;;4882748;29;20136;-76
2024/01/16 05:44:31;;;;;;;7.50;1.52;;;1.20;99.90;;;;;;4865884;29;20532;-75
2024/01/16 05:46:57;;;;;;;6.57;1.10;;;1.20;99.90;;;;;;4865831;29;20088;-76
2024/01/16 05:49:23;;;;;;;6.85;1.00;;;1.20;99.90;;;;;;4865638;29;20127;-76
2024/01/16 05:51:49;;;;;;;7.60;1.40;;;1.20;99.90;;;;;;4865859;29;20057;-75
2024/01/16 05:54:14;;;;;;;8.50;1.90;;;1.20;99.90;;;;;;4865745;29;20049;-75
2024/01/16 05:56:40;;;;;;;8.57;1.10;;;1.20;99.90;;;;;;4866015;29;20136;-75
2024/01/16 05:59:06;;;;;;;5.47;1.27;;;1.20;99.90;;;;;;4865702;29;20560;-75
2024/01/16 06:01:35;;;;;;;6.97;1.20;;;1.20;99.90;;;;;;4865639;29;20063;-75
2024/01/16 06:04:00;;;;;;;6.45;1.70;;;1.20;99.90;;;;;;4882295;29;20041;-75
2024/01/16 06:06:27;;;;;;;7.68;1.30;;;1.20;99.90;;;;;;4865354;29;20064;-76
2024/01/16 06:08:53;;;;;;;10.77;1.15;;;1.20;99.90;;;;;;4865566;29;20064;-75
2024/01/16 06:11:29;;;;;;;9.98;1.00;;;1.20;99.90;;;;;;4865688;29;20061;-75
2024/01/16 06:13:54;;;;;;;7.53;1.05;;;1.20;99.90;;;;;;4882278;29;20108;-75
2024/01/16 06:16:20;;;;;;;10.27;1.60;;;1.20;99.90;;;;;;4865266;29;20510;-75
2024/01/16 06:18:45;;;;;;;14.65;1.23;;;1.20;99.90;;;;;;4865229;29;20053;-76
2024/01/16 06:21:12;;;;;;;11.02;2.45;;;1.30;99.90;;;;;;4864386;29;20056;-75
2024/01/16 06:23:40;;;;;;;8.30;1.48;;;1.30;99.90;;;;;;4865268;29;20397;-75
2024/01/16 06:26:08;;;;;;;7.03;1.13;;;1.30;99.90;;;;;;4865264;29;20049;-75
2024/01/16 06:28:34;;;;;;;7.40;1.52;;;1.30;99.90;;;;;;4881930;29;20116;-75
2024/01/16 06:30:59;;;;;;;12.43;1.60;;;1.30;99.90;;;;;;4881703;29;20479;-75
2024/01/16 06:33:25;;;;;;;9.50;1.63;;;1.30;99.90;;;;;;4865044;29;20045;-76
2024/01/16 06:35:51;;;;;;;6.55;1.85;;;1.30;99.90;;;;;;4865278;29;20065;-76
2024/01/16 06:38:17;;;;;;;7.70;1.48;;;1.30;99.90;;;;;;4865257;29;20085;-76
2024/01/16 06:40:42;;;;;;;8.68;1.77;;;1.30;99.90;;;;;;4865251;29;20049;-75
2024/01/16 06:43:08;;;;;;;11.50;1.52;;;1.30;99.90;;;;;;4864855;29;20432;-75
2024/01/16 06:45:34;;;;;;;12.27;1.77;;;1.40;99.90;;;;;;4864799;29;20053;-75
2024/01/16 06:48:00;;;;;;;3.65;0.77;;;1.40;99.90;;;;;;4864838;29;20056;-75
2024/01/16 06:50:25;;;;;;;9.82;1.27;;;1.30;99.90;;;;;;4864831;29;20045;-75
2024/01/16 06:52:51;;;;;;;6.07;0.98;;;1.30;99.90;;;;;;4881411;29;20112;-75
2024/01/16 06:55:17;;;;;;;7.10;1.45;;;1.30;99.90;;;;;;4864713;29;20092;-76
2024/01/16 06:57:42;;;;;;;11.57;3.50;;;1.40;99.90;;;;;;4864785;29;20061;-76
2024/01/16 07:00:08;;;;;;;6.35;1.92;;;1.40;99.90;;;;;;4864582;29;20374;-76
2024/01/16 07:02:34;;;;;;;7.68;1.10;;;1.40;99.90;;;;;;4864544;29;20059;-76
2024/01/16 07:05:03;;;;;;;3.67;0.60;;;1.60;99.90;;;;;;4864593;29;20052;-76
2024/01/16 07:07:30;;;;;;;4.03;0.75;;;1.70;99.90;;;;;;4864231;29;20080;-75
2024/01/16 07:09:56;;;;;;;10.50;1.58;;;1.70;99.90;;;;;;4864355;29;20064;-76
2024/01/16 07:12:24;;;;;;;11.32;1.17;;;1.60;99.90;;;;;;4881159;29;20053;-76
2024/01/16 07:14:50;;;;;;;5.65;1.10;;;1.50;99.90;;;;;;4864590;29;20041;-76
2024/01/16 07:17:16;;;;;;;8.88;1.50;;;1.50;99.90;;;;;;4881225;29;20504;-76
2024/01/16 07:19:41;;;;;;;8.77;1.20;;;1.50;99.90;;;;;;4881124;29;20056;-76
2024/01/16 07:22:07;;;;;;;4.03;0.80;;;1.40;99.90;;;;;;4864602;29;20053;-75
2024/01/16 07:24:33;;;;;;;5.13;0.50;;;1.40;99.90;;;;;;4864166;29;20050;-76
2024/01/16 07:26:58;;;;;;;3.28;0.80;;;1.50;99.90;;;;;;4864046;29;20053;-76
2024/01/16 07:29:24;;;;;;;7.13;0.77;;;1.50;99.90;;;;;;4864056;29;20057;-76
2024/01/16 07:31:49;;;;;;;5.50;0.63;;;1.50;99.90;;;;;;4863714;29;20056;-76
2024/01/16 07:34:19;;;;;;;3.08;0.60;;;1.50;99.90;;;;;;4864238;29;20049;-76
2024/01/16 07:36:45;;;;;;;3.92;1.13;;;1.50;99.90;;;;;;4864080;29;20550;-76
2024/01/16 07:39:11;;;;;;;9.93;1.35;;;1.50;99.90;;;;;;4880659;29;20140;-76
2024/01/16 07:41:37;;;;;;;8.63;0.80;;;1.50;99.90;;;;;;4864047;29;20060;-76
2024/01/16 07:44:03;;;;;;;6.68;0.95;;;1.50;99.90;;;;;;4863806;29;20053;-76
2024/01/16 07:46:28;;;;;;;6.75;0.70;;;1.40;99.90;;;;;;4880477;29;20053;-76
2024/01/16 07:48:54;;;;;;;4.80;0.70;;;1.40;99.90;;;;;;4863742;29;20049;-76
2024/01/16 07:51:20;;;;;;;6.35;1.65;;;1.40;99.90;;;;;;4863819;29;20068;-76
2024/01/16 07:53:46;;;;;;;5.07;0.70;;;1.30;99.90;;;;;;4863907;29;20143;-76
2024/01/16 07:56:11;;;;;;;6.60;1.50;;;1.30;99.90;;;;;;4863726;29;20060;-76
2024/01/16 07:58:37;;;;;;;5.88;1.98;;;1.50;99.90;;;;;;4863679;29;20400;-76
2024/01/16 08:01:03;;;;;;;6.43;0.93;;;1.40;99.90;;;;;;4862834;29;20073;-76
2024/01/16 08:03:28;;;;;;;11.80;1.23;;;1.50;99.90;;;;;;4862578;29;20091;-76
2024/01/16 08:05:55;;;;;;;9.50;1.10;;;1.40;99.90;;;;;;4863163;29;20409;-76
2024/01/16 08:08:21;;;;;;;7.75;1.70;;;1.40;99.90;;;;;;4863579;29;20068;-77
2024/01/16 08:10:47;;;;;;;9.98;2.08;;;1.40;99.90;;;;;;4863266;29;20401;-76
2024/01/16 08:13:13;;;;;;;7.28;1.63;;;1.40;99.90;;;;;;4863187;29;20057;-75
2024/01/16 08:15:38;;;;;;;12.13;2.38;;;1.30;99.90;;;;;;4863191;29;20068;-76
2024/01/16 08:18:04;;;;;;;6.03;1.38;;;1.40;99.90;;;;;;4863203;29;20094;-76
2024/01/16 08:20:30;;;;;;;5.93;1.88;;;1.40;99.90;;;;;;4863134;29;20154;-76
2024/01/16 08:22:55;;;;;;;7.72;2.03;;;1.40;99.90;;;;;;4863079;29;20136;-77
2024/01/16 08:25:21;;;;;;;10.45;1.95;;;1.40;99.90;;;;;;4863304;29;20089;-76
2024/01/16 08:27:47;;;;;;;10.48;1.33;;;1.40;99.90;;;;;;4856550;29;20489;-75
2024/01/16 08:30:12;;;;;;;6.05;2.05;;;1.30;99.90;;;;;;4848689;29;20065;-75
2024/01/16 08:32:38;;;;;;;13.23;3.40;;;1.30;99.90;;;;;;4844238;29;20076;-76
2024/01/16 08:35:05;;;;;;;21.00;4.32;;;1.30;99.90;;;;;;4844391;29;20124;-76
2024/01/16 08:37:34;;;;;;;17.08;4.85;;;1.30;99.90;;;;;;4844150;29;20571;-77
2024/01/16 08:39:59;;;;;;;10.48;1.73;;;1.30;99.90;;;;;;4844509;29;20057;-75
2024/01/16 08:42:25;;;;;;;9.02;1.67;;;1.30;99.90;;;;;;4844283;29;20128;-76
2024/01/16 08:44:51;;;;;;;4.07;0.90;;;1.40;99.90;;;;;;4847858;29;20037;-76
2024/01/16 08:47:16;;;;;;;6.75;0.85;;;1.40;99.90;;;;;;4848122;29;20053;-75
2024/01/16 08:49:43;;;;;;;5.15;0.77;;;1.40;99.90;;;;;;4848225;29;20053;-76
2024/01/16 08:52:09;;;;;;;4.50;0.80;;;1.40;99.90;;;;;;4847943;29;20061;-78
2024/01/16 08:54:38;;;;;;;6.00;1.20;;;1.40;99.90;;;;;;4848223;29;20045;-76
2024/01/16 08:57:04;;;;;;;3.72;1.30;;;1.40;99.90;;;;;;4864716;29;20053;-75
2024/01/16 08:59:29;;;;;;;6.13;0.75;;;1.50;99.90;;;;;;4864656;29;20121;-78
2024/01/16 09:01:55;;;;;;;7.47;1.42;;;1.50;99.90;;;;;;4864357;29;20132;-76
2024/01/16 09:04:21;;;;;;;3.33;0.88;;;1.50;99.90;;;;;;4847663;29;20490;-75
2024/01/16 09:06:47;;;;;;;4.40;0.75;;;1.50;99.90;;;;;;4847706;29;20117;-75
2024/01/16 09:09:15;;;;;;;6.25;0.73;;;1.50;99.90;;;;;;4847571;29;20053;-75
2024/01/16 09:11:41;;;;;;;7.60;0.63;;;1.50;99.90;;;;;;4847597;29;20058;-78
2024/01/16 09:14:07;;;;;;;3.33;0.82;;;1.50;99.90;;;;;;4847621;29;20053;-75
2024/01/16 09:16:32;;;;;;;4.60;0.80;;;1.40;99.90;;;;;;4847928;29;20060;-75
2024/01/16 09:18:58;;;;;;;6.10;0.82;;;1.40;99.90;;;;;;4847756;29;20057;-75
2024/01/16 09:21:24;;;;;;;4.25;0.80;;;1.40;99.90;;;;;;4847731;29;20168;-75
2024/01/16 09:23:49;;;;;;;7.55;1.30;;;1.40;99.90;;;;;;4847646;29;20065;-75
2024/01/16 09:26:15;;;;;;;6.90;1.00;;;1.50;99.90;;;;;;4862134;29;20048;-75
2024/01/16 09:28:40;;;;;;;4.05;0.90;;;1.50;99.90;;;;;;4866138;29;20052;-74
2024/01/16 09:31:07;;;;;;;7.97;1.10;;;1.60;99.90;;;;;;4866002;29;20049;-75
2024/01/16 09:33:34;;;;;;;5.55;1.13;;;1.70;99.90;;;;;;4866061;29;20088;-75
2024/01/16 09:35:59;;;;;;;4.72;0.95;;;1.70;99.90;;;;;;4865732;29;20053;-75
2024/01/16 09:38:25;;;;;;;2.28;0.50;;;1.60;99.90;;;;;;4865651;29;20060;-75
2024/01/16 09:40:52;;;;;;;1.35;0.30;;;1.60;99.90;;;;;;4865904;29;20072;-75
2024/01/16 09:43:20;;;;;;;2.58;0.50;;;1.50;99.90;;;;;;4865593;29;20044;-75
2024/01/16 09:45:48;;;;;;;2.30;0.50;;;1.40;99.90;;;;;;4850289;29;20041;-76
2024/01/16 09:48:15;;;;;;;1.95;0.40;;;1.30;99.90;;;;;;4865663;29;20085;-76
2024/01/16 09:50:40;;;;;;;1.67;0.77;;;1.30;99.90;;;;;;4865403;29;20473;-76
2024/01/16 09:53:06;;;;;;;2.42;0.50;;;1.20;99.90;;;;;;4865194;29;20053;-75
2024/01/16 09:55:32;;;;;;;4.65;0.75;;;1.20;99.90;;;;;;4865162;29;20132;-77
2024/01/16 09:57:59;;;;;;;4.50;0.50;;;1.20;99.90;;;;;;4882309;29;20049;-77
2024/01/16 10:00:25;;;;;;;1.75;0.52;;;1.20;99.90;;;;;;4865314;29;20051;-77
2024/01/16 10:02:53;;;;;;;2.83;0.50;;;1.20;99.90;;;;;;4865357;29;20056;-77
2024/01/16 10:05:19;;;;;;;2.55;0.43;;;1.20;99.90;;;;;;4865191;29;20132;-77
2024/01/16 10:07:47;;;;;;;4.43;0.50;;;1.30;99.90;;;;;;4865157;29;20148;-77
2024/01/16 10:10:15;;;;;;;2.10;0.30;;;1.30;99.90;;;;;;4865093;29;20605;-77
2024/01/16 10:12:40;;;;;;;6.53;0.70;;;1.30;99.90;;;;;;4881895;29;20131;-77
2024/01/16 10:15:07;;;;;;;7.25;1.50;;;1.30;99.90;;;;;;4865013;29;20124;-77
2024/01/16 10:17:42;;;;;;;1.48;0.60;;;1.30;99.90;;;;;;4865062;29;20171;-77
2024/01/16 10:20:13;;;;;;;2.10;0.38;;;1.20;99.90;;;;;;4865302;29;20060;-77
2024/01/16 10:22:40;;;;;;;3.10;0.88;;;1.30;99.90;;;;;;4864945;29;20136;-77
2024/01/16 10:25:06;;;;;;;2.15;0.40;;;1.30;99.90;;;;;;4864860;29;20511;-77
2024/01/16 10:27:33;;;;;;;2.35;0.50;;;1.30;99.90;;;;;;4874447;29;20496;-77
2024/01/16 10:29:58;;;;;;;2.65;0.45;;;1.30;99.90;;;;;;4896526;29;20128;-76
2024/01/16 10:32:35;;;;;;;3.72;0.85;;;1.30;99.90;;;;;;4877925;29;20136;-78
2024/01/16 10:35:09;;;;;;;5.85;0.60;;;1.30;99.90;;;;;;4846543;29;20068;-76
2024/01/16 10:37:45;;;;;;;3.47;0.73;;;1.30;99.90;;;;;;4846403;29;20058;-76
2024/01/16 10:40:21;;;;;;;3.88;1.35;;;1.30;99.90;;;;;;4862853;29;20106;-76
2024/01/16 10:43:04;;;;;;;4.72;0.60;;;1.30;99.90;;;;;;4862860;29;20048;-76
2024/01/16 10:45:30;;;;;;;3.88;0.50;;;1.30;99.90;;;;;;4854310;29;20081;-76
2024/01/16 10:48:08;;;;;;;4.20;0.70;;;1.20;99.90;;;;;;4883253;29;20047;-76
2024/01/16 10:50:37;;;;;;;3.42;0.35;;;1.20;99.90;;;;;;4872135;29;20139;-75
2024/01/16 10:53:07;;;;;;;4.60;0.77;;;1.30;99.90;;;;;;4895338;29;20053;-76
2024/01/16 10:55:46;;;;;;;4.07;1.20;;;1.30;99.90;;;;;;4895486;29;20052;-76
2024/01/16 10:58:13;;;;;;;2.60;0.40;;;1.40;99.90;;;;;;4864534;29;20068;-76
2024/01/16 11:00:41;;;;;;;4.93;0.70;;;1.40;99.90;;;;;;4864258;29;20053;-76
2024/01/16 11:03:12;;;;;;;7.65;0.70;;;1.40;99.90;;;;;;4864366;29;20067;-75
2024/01/16 11:05:39;;;;;;;2.00;0.47;;;1.50;99.90;;;;;;4895023;29;20057;-75
2024/01/16 11:08:07;;;;;;;2.60;0.45;;;1.50;99.90;;;;;;4895021;29;20063;-75
2024/01/16 11:10:35;;;;;;;1.55;0.45;;;1.50;99.90;;;;;;4864419;29;20087;-75
2024/01/16 11:13:02;;;;;;;2.58;0.73;;;1.50;99.90;;;;;;4894825;29;20537;-75
2024/01/16 11:15:28;;;;;;;3.38;0.85;;;1.50;99.90;;;;;;4895293;29;20052;-75
2024/01/16 11:17:55;;;;;;;2.80;0.75;;;1.40;99.90;;;;;;4861727;29;20053;-75
2024/01/16 11:20:21;;;;;;;1.75;0.50;;;1.40;99.90;;;;;;4863693;29;20049;-75
2024/01/16 11:22:49;;;;;;;4.43;0.98;;;1.30;99.90;;;;;;4894901;29;20045;-75
2024/01/16 11:25:16;;;;;;;3.55;1.05;;;1.20;99.90;;;;;;4863804;29;20057;-76
2024/01/16 11:27:50;;;;;;;3.13;0.90;;;1.30;99.90;;;;;;4894736;29;20402;-76
2024/01/16 11:30:31;;;;;;;2.67;0.80;;;1.20;99.90;;;;;;4848349;29;20076;-76
2024/01/16 11:32:56;;;;;;;1.85;0.77;;;1.20;99.90;;;;;;4880357;29;20052;-76
2024/01/16 11:35:40;;;;;;;3.55;0.95;;;1.20;99.90;;;;;;4863570;29;20556;-76
2024/01/16 11:38:16;;;;;;;2.80;0.75;;;1.20;99.90;;;;;;4894901;29;20492;-76
2024/01/16 11:40:43;;;;;;;3.15;0.80;;;1.20;99.90;;;;;;4863605;29;20053;-76
2024/01/16 11:43:34;;;;;;;4.47;0.98;;;1.20;99.90;;;;;;4863682;29;20045;-76
2024/01/16 11:46:01;;;;;;;3.85;1.00;;;1.30;99.90;;;;;;4863542;29;20059;-76
2024/01/16 11:48:27;;;;;;;6.47;1.08;;;1.30;99.90;;;;;;4863485;29;20049;-76
2024/01/16 11:50:53;;;;;;;4.95;1.40;;;1.30;99.90;;;;;;4863505;29;20049;-76
2024/01/16 11:53:39;;;;;;;5.40;1.50;;;1.40;99.90;;;;;;4894393;29;20051;-76
2024/01/16 11:56:27;;;;;;;4.30;1.40;;;1.50;99.90;;;;;;4863359;29;20053;-76
2024/01/16 11:59:28;;;;;;;7.57;2.03;;;1.50;99.90;;;;;;4863607;29;20049;-77
2024/01/16 12:01:58;;;;;;;9.65;2.22;;;1.70;99.90;;;;;;4863488;29;20056;-76
2024/01/16 12:04:24;;;;;;;8.93;2.45;;;1.80;99.90;;;;;;4863461;29;20057;-76
2024/01/16 12:06:59;;;;;;;6.57;1.90;;;1.90;99.90;;;;;;4860986;29;20401;-76
2024/01/16 12:09:27;;;;;;;8.48;1.85;;;1.90;99.90;;;;;;4863114;29;20049;-78
2024/01/16 12:12:01;;;;;;;6.18;1.70;;;2.00;99.90;;;;;;4879528;29;20056;-76
2024/01/16 12:14:27;;;;;;;7.43;2.15;;;2.00;99.90;;;;;;4863203;29;20052;-76
2024/01/16 12:17:08;;;;;;;6.90;1.30;;;2.00;99.90;;;;;;4863046;29;20140;-76
2024/01/16 12:19:34;;;;;;;6.45;1.33;;;2.00;99.90;;;;;;4893983;29;20071;-76
2024/01/16 12:22:00;;;;;;;4.90;2.03;;;2.00;99.90;;;;;;4894010;29;20488;-77
2024/01/16 12:24:26;;;;;;;4.70;1.30;;;1.90;99.90;;;;;;4863134;29;20060;-77
2024/01/16 12:26:52;;;;;;;5.32;1.73;;;1.90;99.90;;;;;;4863137;29;20446;-76
2024/01/16 12:29:18;;;;;;;6.28;1.60;;;1.90;99.90;;;;;;4863003;29;20088;-76
2024/01/16 12:31:44;;;;;;;5.32;1.58;;;1.90;99.90;;;;;;4893812;29;20088;-76
2024/01/16 12:34:09;;;;;;;3.53;1.23;;;1.90;99.90;;;;;;4862919;29;20045;-76
2024/01/16 12:36:36;;;;;;;4.68;1.08;;;1.90;99.90;;;;;;4863049;29;20123;-76
2024/01/16 12:39:02;;;;;;;4.78;0.90;;;1.90;99.90;;;;;;4893736;29;20113;-76
2024/01/16 12:41:33;;;;;;;10.15;1.23;;;2.00;99.90;;;;;;4862957;29;20056;-76
2024/01/16 12:44:01;;;;;;;4.43;1.00;;;2.00;99.90;;;;;;4863032;29;20053;-76
2024/01/16 12:46:27;;;;;;;10.18;2.78;;;2.10;99.90;;;;;;4862991;29;20076;-76
2024/01/16 12:48:54;;;;;;;4.60;1.33;;;2.10;99.90;;;;;;4862684;29;20414;-76
2024/01/16 12:51:24;;;;;;;6.43;1.33;;;2.10;99.90;;;;;;4862792;29;20048;-78
2024/01/16 12:53:49;;;;;;;9.25;1.45;;;2.10;99.90;;;;;;4879613;29;20063;-77